sensor_id;sensor_type;location;lat;lon;timestamp;pressure;altitude;pressure_sealevel;temperature;humidity
30021;BME280;16861;52.294;7.760;2023-01-16T00:02:25;97931.34;;;7.53;73.53
30021;BME280;16861;52.294;7.760;2023-01-16T00:04:52;97930.38;;;7.54;73.31
30021;BME280;16861;52.294;7.760;2023-01-16T00:07:18;97930.38;;;7.54;73.27
30021;BME280;16861;52.294;7.760;2023-01-16T00:09:45;97926.09;;;7.53;73.22
30021;BME280;16861;52.294;7.760;2023-01-16T00:12:11;97916.47;;;7.53;72.99
30021;BME280;16861;52.294;7.760;2023-01-16T00:14:38;97910.41;;;7.53;73.47
30021;BME280;16861;52.294;7.760;2023-01-16T00:17:04;97903.50;;;7.52;73.07
30021;BME280;16861;52.294;7.760;2023-01-16T00:19:33;97904.31;;;7.52;73.42
30021;BME280;16861;52.294;7.760;2023-01-16T00:22:00;97896.59;;;7.51;73.18
30021;BME280;16861;52.294;7.760;2023-01-16T00:24:26;97890.41;;;7.52;73.00
30021;BME280;16861;52.294;7.760;2023-01-16T00:26:53;97882.66;;;7.50;73.13
30021;BME280;16861;52.294;7.760;2023-01-16T00:29:20;97883.63;;;7.49;72.95
30021;BME280;16861;52.294;7.760;2023-01-16T00:31:46;97880.38;;;7.46;72.41
30021;BME280;16861;52.294;7.760;2023-01-16T00:34:13;97875.38;;;7.42;72.25
30021;BME280;16861;52.294;7.760;2023-01-16T00:36:39;97865.03;;;7.41;72.78
30021;BME280;16861;52.294;7.760;2023-01-16T00:39:06;97868.72;;;7.38;72.69
30021;BME280;16861;52.294;7.760;2023-01-16T00:41:33;97867.03;;;7.37;72.49
30021;BME280;16861;52.294;7.760;2023-01-16T00:43:59;97861.09;;;7.35;72.73
30021;BME280;16861;52.294;7.760;2023-01-16T00:46:26;97862.16;;;7.33;72.63
30021;BME280;16861;52.294;7.760;2023-01-16T00:48:56;97854.41;;;7.31;72.69
30021;BME280;16861;52.294;7.760;2023-01-16T00:51:23;97850.94;;;7.30;73.18
30021;BME280;16861;52.294;7.760;2023-01-16T00:56:34;97839.88;;;7.27;73.21
30021;BME280;16861;52.294;7.760;2023-01-16T00:59:00;97830.38;;;7.26;73.16
30021;BME280;16861;52.294;7.760;2023-01-16T01:01:26;97833.31;;;7.21;72.89
30021;BME280;16861;52.294;7.760;2023-01-16T01:03:53;97832.50;;;7.21;73.07
30021;BME280;16861;52.294;7.760;2023-01-16T01:06:19;97828.31;;;7.18;73.11
30021;BME280;16861;52.294;7.760;2023-01-16T01:08:46;97818.91;;;7.15;73.24
30021;BME280;16861;52.294;7.760;2023-01-16T01:11:13;97813.06;;;7.12;72.97
30021;BME280;16861;52.294;7.760;2023-01-16T01:13:41;97809.59;;;7.11;73.12
30021;BME280;16861;52.294;7.760;2023-01-16T01:16:09;97803.66;;;7.09;73.60
30021;BME280;16861;52.294;7.760;2023-01-16T01:18:36;97803.88;;;7.06;73.43
30021;BME280;16861;52.294;7.760;2023-01-16T01:21:03;97804.00;;;7.04;73.65
30021;BME280;16861;52.294;7.760;2023-01-16T01:23:29;97796.41;;;7.01;74.10
30021;BME280;16861;52.294;7.760;2023-01-16T01:25:56;97792.09;;;7.00;73.81
30021;BME280;16861;52.294;7.760;2023-01-16T01:28:22;97780.91;;;6.98;73.85
30021;BME280;16861;52.294;7.760;2023-01-16T01:30:48;97777.59;;;6.96;74.11
30021;BME280;16861;52.294;7.760;2023-01-16T01:33:15;97775.09;;;6.95;74.33
30021;BME280;16861;52.294;7.760;2023-01-16T01:35:41;97770.06;;;6.91;74.16
30021;BME280;16861;52.294;7.760;2023-01-16T01:38:08;97763.28;;;6.89;73.86
30021;BME280;16861;52.294;7.760;2023-01-16T01:40:34;97767.78;;;6.87;74.13
30021;BME280;16861;52.294;7.760;2023-01-16T01:43:00;97759.25;;;6.85;74.53
30021;BME280;16861;52.294;7.760;2023-01-16T01:45:29;97743.75;;;6.82;74.50
30021;BME280;16861;52.294;7.760;2023-01-16T01:48:02;97747.44;;;6.79;73.99
30021;BME280;16861;52.294;7.760;2023-01-16T01:50:41;97744.13;;;6.77;73.63
30021;BME280;16861;52.294;7.760;2023-01-16T01:53:17;97749.56;;;6.74;73.85
30021;BME280;16861;52.294;7.760;2023-01-16T01:55:46;97734.84;;;6.73;74.38
30021;BME280;16861;52.294;7.760;2023-01-16T01:58:16;97722.94;;;6.69;74.34
30021;BME280;16861;52.294;7.760;2023-01-16T02:00:49;97728.16;;;6.69;74.79
30021;BME280;16861;52.294;7.760;2023-01-16T02:03:24;97723.16;;;6.65;73.61
30021;BME280;16861;52.294;7.760;2023-01-16T02:05:56;97709.38;;;6.63;74.40
30021;BME280;16861;52.294;7.760;2023-01-16T02:08:27;97714.81;;;6.60;73.94
30021;BME280;16861;52.294;7.760;2023-01-16T02:13:28;97708.84;;;6.58;74.57
30021;BME280;16861;52.294;7.760;2023-01-16T02:15:56;97701.25;;;6.55;74.75
30021;BME280;16861;52.294;7.760;2023-01-16T02:18:41;97687.34;;;6.55;75.08
30021;BME280;16861;52.294;7.760;2023-01-16T02:27:06;97675.56;;;6.49;74.06
30021;BME280;16861;52.294;7.760;2023-01-16T02:32:25;97663.44;;;6.48;74.42
30021;BME280;16861;52.294;7.760;2023-01-16T02:37:51;97651.22;;;6.48;75.11
30021;BME280;16861;52.294;7.760;2023-01-16T02:40:43;97649.66;;;6.46;74.40
30021;BME280;16861;52.294;7.760;2023-01-16T02:43:30;97645.25;;;6.46;74.46
30021;BME280;16861;52.294;7.760;2023-01-16T02:54:07;97618.16;;;6.36;74.79
30021;BME280;16861;52.294;7.760;2023-01-16T02:56:43;97610.44;;;6.34;74.97
30021;BME280;16861;52.294;7.760;2023-01-16T02:59:13;97606.97;;;6.34;75.37
30021;BME280;16861;52.294;7.760;2023-01-16T03:01:40;97608.75;;;6.33;75.55
30021;BME280;16861;52.294;7.760;2023-01-16T03:07:25;97607.31;;;6.29;74.68
30021;BME280;16861;52.294;7.760;2023-01-16T03:18:39;97586.75;;;6.24;74.38
30021;BME280;16861;52.294;7.760;2023-01-16T03:21:18;97578.69;;;6.28;75.90
30021;BME280;16861;52.294;7.760;2023-01-16T03:23:56;97586.66;;;6.26;75.12
30021;BME280;16861;52.294;7.760;2023-01-16T03:26:36;97595.44;;;6.25;74.77
30021;BME280;16861;52.294;7.760;2023-01-16T03:29:36;97579.03;;;6.23;74.17
30021;BME280;16861;52.294;7.760;2023-01-16T03:32:15;97576.09;;;6.28;75.86
30021;BME280;16861;52.294;7.760;2023-01-16T03:35:08;97565.97;;;6.23;74.96
30021;BME280;16861;52.294;7.760;2023-01-16T03:37:54;97564.09;;;6.25;75.52
30021;BME280;16861;52.294;7.760;2023-01-16T03:40:28;97562.28;;;6.25;75.60
30021;BME280;16861;52.294;7.760;2023-01-16T03:43:29;97545.06;;;6.23;75.17
30021;BME280;16861;52.294;7.760;2023-01-16T03:46:06;97543.19;;;6.25;75.54
30021;BME280;16861;52.294;7.760;2023-01-16T03:51:24;97535.47;;;6.23;76.08
30021;BME280;16861;52.294;7.760;2023-01-16T03:53:59;97532.97;;;6.22;75.88
30021;BME280;16861;52.294;7.760;2023-01-16T03:56:34;97532.13;;;6.21;76.01
30021;BME280;16861;52.294;7.760;2023-01-16T03:59:02;97531.19;;;6.22;76.73
30021;BME280;16861;52.294;7.760;2023-01-16T04:07:09;97528.22;;;6.16;75.83
30021;BME280;16861;52.294;7.760;2023-01-16T04:09:45;97519.53;;;6.15;75.85
30021;BME280;16861;52.294;7.760;2023-01-16T04:12:13;97522.97;;;6.16;76.13
30021;BME280;16861;52.294;7.760;2023-01-16T04:14:44;97517.03;;;6.13;76.49
30021;BME280;16861;52.294;7.760;2023-01-16T04:17:12;97515.38;;;6.12;76.28
30021;BME280;16861;52.294;7.760;2023-01-16T04:19:39;97514.63;;;6.10;76.54
30021;BME280;16861;52.294;7.760;2023-01-16T04:22:07;97508.59;;;6.10;76.63
30021;BME280;16861;52.294;7.760;2023-01-16T04:24:35;97509.41;;;6.10;76.46
30021;BME280;16861;52.294;7.760;2023-01-16T04:27:01;97505.88;;;6.11;76.85
30021;BME280;16861;52.294;7.760;2023-01-16T04:29:28;97494.81;;;6.08;76.04
30021;BME280;16861;52.294;7.760;2023-01-16T04:31:54;97493.16;;;6.07;76.13
30021;BME280;16861;52.294;7.760;2023-01-16T04:34:20;97485.41;;;6.05;75.74
30021;BME280;16861;52.294;7.760;2023-01-16T04:36:47;97473.50;;;6.01;75.72
30021;BME280;16861;52.294;7.760;2023-01-16T04:39:13;97479.78;;;5.98;75.51
30021;BME280;16861;52.294;7.760;2023-01-16T04:41:39;97474.94;;;5.94;75.94
30021;BME280;16861;52.294;7.760;2023-01-16T04:44:09;97466.47;;;5.90;75.96
30021;BME280;16861;52.294;7.760;2023-01-16T04:46:36;97461.38;;;5.89;76.13
30021;BME280;16861;52.294;7.760;2023-01-16T04:49:04;97459.13;;;5.84;76.39
30021;BME280;16861;52.294;7.760;2023-01-16T04:51:31;97449.63;;;5.83;76.33
30021;BME280;16861;52.294;7.760;2023-01-16T04:53:58;97444.41;;;5.83;76.37
30021;BME280;16861;52.294;7.760;2023-01-16T04:56:24;97445.44;;;5.80;76.30
30021;BME280;16861;52.294;7.760;2023-01-16T04:58:51;97444.50;;;5.81;76.24
30021;BME280;16861;52.294;7.760;2023-01-16T05:01:19;97430.63;;;5.81;76.39
30021;BME280;16861;52.294;7.760;2023-01-16T05:03:45;97428.13;;;5.79;76.40
30021;BME280;16861;52.294;7.760;2023-01-16T05:06:12;97423.00;;;5.78;76.73
30021;BME280;16861;52.294;7.760;2023-01-16T05:08:38;97422.19;;;5.77;76.73
30021;BME280;16861;52.294;7.760;2023-01-16T05:11:05;97414.25;;;5.79;76.96
30021;BME280;16861;52.294;7.760;2023-01-16T05:13:37;97412.47;;;5.79;76.43
30021;BME280;16861;52.294;7.760;2023-01-16T05:16:04;97405.09;;;5.84;77.23
30021;BME280;16861;52.294;7.760;2023-01-16T05:18:30;97404.06;;;5.87;77.37
30021;BME280;16861;52.294;7.760;2023-01-16T05:20:57;97397.63;;;5.91;77.06
30021;BME280;16861;52.294;7.760;2023-01-16T05:23:23;97382.81;;;5.92;77.28
30021;BME280;16861;52.294;7.760;2023-01-16T05:25:49;97385.19;;;5.95;77.09
30021;BME280;16861;52.294;7.760;2023-01-16T05:28:16;97384.97;;;5.98;77.19
30021;BME280;16861;52.294;7.760;2023-01-16T05:30:42;97379.59;;;5.99;76.96
30021;BME280;16861;52.294;7.760;2023-01-16T05:33:08;97375.94;;;6.02;76.68
30021;BME280;16861;52.294;7.760;2023-01-16T05:35:35;97365.47;;;6.02;76.71
30021;BME280;16861;52.294;7.760;2023-01-16T05:38:01;97353.38;;;6.01;76.16
30021;BME280;16861;52.294;7.760;2023-01-16T05:40:28;97353.19;;;6.04;76.19
30021;BME280;16861;52.294;7.760;2023-01-16T05:42:54;97347.13;;;6.04;76.19
30021;BME280;16861;52.294;7.760;2023-01-16T05:45:21;97344.50;;;6.04;75.80
30021;BME280;16861;52.294;7.760;2023-01-16T05:47:47;97341.09;;;6.03;75.78
30021;BME280;16861;52.294;7.760;2023-01-16T05:50:14;97342.13;;;6.00;75.74
30021;BME280;16861;52.294;7.760;2023-01-16T05:52:40;97328.34;;;5.98;75.72
30021;BME280;16861;52.294;7.760;2023-01-16T05:55:07;97312.78;;;5.97;75.82
30021;BME280;16861;52.294;7.760;2023-01-16T05:57:33;97317.31;;;5.95;75.80
30021;BME280;16861;52.294;7.760;2023-01-16T06:00:00;97312.09;;;5.95;75.66
30021;BME280;16861;52.294;7.760;2023-01-16T06:02:26;97308.75;;;5.93;75.83
30021;BME280;16861;52.294;7.760;2023-01-16T06:04:53;97301.88;;;5.92;75.65
30021;BME280;16861;52.294;7.760;2023-01-16T06:07:19;97299.38;;;5.90;75.83
30021;BME280;16861;52.294;7.760;2023-01-16T06:09:45;97294.25;;;5.89;75.62
30021;BME280;16861;52.294;7.760;2023-01-16T06:12:16;97282.28;;;5.86;75.48
30021;BME280;16861;52.294;7.760;2023-01-16T06:14:43;97276.25;;;5.85;75.62
30021;BME280;16861;52.294;7.760;2023-01-16T06:17:14;97276.25;;;5.85;75.76
30021;BME280;16861;52.294;7.760;2023-01-16T06:19:41;97259.84;;;5.83;75.65
30021;BME280;16861;52.294;7.760;2023-01-16T06:22:08;97264.38;;;5.81;75.39
30021;BME280;16861;52.294;7.760;2023-01-16T06:24:34;97265.19;;;5.82;75.54
30021;BME280;16861;52.294;7.760;2023-01-16T06:27:01;97253.22;;;5.79;76.00
30021;BME280;16861;52.294;7.760;2023-01-16T06:29:27;97257.63;;;5.79;76.01
30021;BME280;16861;52.294;7.760;2023-01-16T06:31:56;97246.47;;;5.77;75.56
30021;BME280;16861;52.294;7.760;2023-01-16T06:34:22;97248.09;;;5.78;76.01
30021;BME280;16861;52.294;7.760;2023-01-16T06:36:49;97243.84;;;5.77;75.99
30021;BME280;16861;52.294;7.760;2023-01-16T06:39:17;97242.19;;;5.76;75.66
30021;BME280;16861;52.294;7.760;2023-01-16T06:41:44;97238.63;;;5.77;76.22
30021;BME280;16861;52.294;7.760;2023-01-16T06:44:10;97223.06;;;5.75;75.84
30021;BME280;16861;52.294;7.760;2023-01-16T06:46:37;97222.28;;;5.74;75.82
30021;BME280;16861;52.294;7.760;2023-01-16T06:49:04;97225.69;;;5.75;75.88
30021;BME280;16861;52.294;7.760;2023-01-16T06:51:30;97215.25;;;5.75;75.95
30021;BME280;16861;52.294;7.760;2023-01-16T06:53:56;97213.59;;;5.74;75.82
30021;BME280;16861;52.294;7.760;2023-01-16T06:56:23;97204.91;;;5.73;76.05
30021;BME280;16861;52.294;7.760;2023-01-16T06:58:50;97205.75;;;5.74;76.07
30021;BME280;16861;52.294;7.760;2023-01-16T07:01:17;97191.06;;;5.73;75.95
30021;BME280;16861;52.294;7.760;2023-01-16T07:03:43;97185.84;;;5.73;75.90
30021;BME280;16861;52.294;7.760;2023-01-16T07:06:10;97173.75;;;5.72;76.02
30021;BME280;16861;52.294;7.760;2023-01-16T07:08:39;97169.44;;;5.71;76.08
30021;BME280;16861;52.294;7.760;2023-01-16T07:11:05;97178.00;;;5.73;76.22
30021;BME280;16861;52.294;7.760;2023-01-16T07:13:33;97162.47;;;5.71;76.16
30021;BME280;16861;52.294;7.760;2023-01-16T07:16:00;97152.88;;;5.72;76.39
30021;BME280;16861;52.294;7.760;2023-01-16T07:18:45;97149.28;;;5.73;76.38
30021;BME280;16861;52.294;7.760;2023-01-16T07:21:30;97135.28;;;5.74;76.39
30021;BME280;16861;52.294;7.760;2023-01-16T07:24:19;97128.31;;;5.74;76.52
30021;BME280;16861;52.294;7.760;2023-01-16T07:26:50;97121.28;;;5.75;76.90
30021;BME280;16861;52.294;7.760;2023-01-16T07:29:19;97114.06;;;5.79;76.87
30021;BME280;16861;52.294;7.760;2023-01-16T07:31:46;97116.41;;;5.82;77.20
30021;BME280;16861;52.294;7.760;2023-01-16T07:34:12;97116.16;;;5.85;77.46
30021;BME280;16861;52.294;7.760;2023-01-16T07:36:39;97105.59;;;5.86;77.26
30021;BME280;16861;52.294;7.760;2023-01-16T07:39:05;97100.94;;;5.90;77.46
30021;BME280;16861;52.294;7.760;2023-01-16T07:41:32;97091.09;;;5.94;77.26
30021;BME280;16861;52.294;7.760;2023-01-16T07:43:59;97088.22;;;5.97;77.33
30021;BME280;16861;52.294;7.760;2023-01-16T07:46:25;97088.94;;;5.99;77.31
30021;BME280;16861;52.294;7.760;2023-01-16T07:48:52;97076.44;;;6.03;77.26
30021;BME280;16861;52.294;7.760;2023-01-16T07:51:19;97078.00;;;6.05;77.18
30021;BME280;16861;52.294;7.760;2023-01-16T07:53:46;97077.78;;;6.08;77.20
30021;BME280;16861;52.294;7.760;2023-01-16T07:56:13;97076.69;;;6.11;77.37
30021;BME280;16861;52.294;7.760;2023-01-16T07:58:39;97074.75;;;6.13;76.93
30021;BME280;16861;52.294;7.760;2023-01-16T08:01:07;97057.19;;;6.15;77.13
30021;BME280;16861;52.294;7.760;2023-01-16T08:03:34;97055.28;;;6.17;77.21
30021;BME280;16861;52.294;7.760;2023-01-16T08:06:01;97054.22;;;6.20;77.21
30021;BME280;16861;52.294;7.760;2023-01-16T08:08:29;97043.63;;;6.21;77.16
30021;BME280;16861;52.294;7.760;2023-01-16T08:10:56;97039.91;;;6.24;77.12
30021;BME280;16861;52.294;7.760;2023-01-16T08:13:24;97033.63;;;6.27;77.21
30021;BME280;16861;52.294;7.760;2023-01-16T08:15:52;97031.72;;;6.29;77.38
30021;BME280;16861;52.294;7.760;2023-01-16T08:18:18;97031.59;;;6.30;77.49
30021;BME280;16861;52.294;7.760;2023-01-16T08:20:46;97017.31;;;6.34;77.39
30021;BME280;16861;52.294;7.760;2023-01-16T08:23:12;97016.22;;;6.37;77.33
30021;BME280;16861;52.294;7.760;2023-01-16T08:25:39;97007.28;;;6.39;77.60
30021;BME280;16861;52.294;7.760;2023-01-16T08:28:06;97002.78;;;6.42;77.32
30021;BME280;16861;52.294;7.760;2023-01-16T08:30:32;96988.47;;;6.46;77.33
30021;BME280;16861;52.294;7.760;2023-01-16T08:33:00;96979.56;;;6.48;77.28
30021;BME280;16861;52.294;7.760;2023-01-16T08:35:28;96974.06;;;6.51;77.50
30021;BME280;16861;52.294;7.760;2023-01-16T08:37:54;96979.88;;;6.55;77.42
30021;BME280;16861;52.294;7.760;2023-01-16T08:40:21;96958.81;;;6.57;77.08
30021;BME280;16861;52.294;7.760;2023-01-16T08:42:47;96955.13;;;6.59;77.10
30021;BME280;16861;52.294;7.760;2023-01-16T08:45:32;96952.22;;;6.62;76.96
30021;BME280;16861;52.294;7.760;2023-01-16T08:48:23;96950.47;;;6.63;75.77
30021;BME280;16861;52.294;7.760;2023-01-16T08:51:15;96932.84;;;6.65;75.85
30021;BME280;16861;52.294;7.760;2023-01-16T08:53:49;96933.44;;;6.69;77.14
30021;BME280;16861;52.294;7.760;2023-01-16T08:56:16;96932.47;;;6.70;77.17
30021;BME280;16861;52.294;7.760;2023-01-16T08:58:42;96925.28;;;6.72;76.88
30021;BME280;16861;52.294;7.760;2023-01-16T09:01:09;96913.06;;;6.72;77.21
30021;BME280;16861;52.294;7.760;2023-01-16T09:03:35;96913.78;;;6.74;77.10
30021;BME280;16861;52.294;7.760;2023-01-16T09:06:02;96910.06;;;6.77;77.14
30021;BME280;16861;52.294;7.760;2023-01-16T09:08:29;96911.56;;;6.80;76.91
30021;BME280;16861;52.294;7.760;2023-01-16T09:10:55;96908.84;;;6.81;77.04
30021;BME280;16861;52.294;7.760;2023-01-16T09:13:40;96886.94;;;6.82;76.98
30021;BME280;16861;52.294;7.760;2023-01-16T09:16:21;96883.38;;;6.83;76.47
30021;BME280;16861;52.294;7.760;2023-01-16T09:18:48;96881.47;;;6.85;76.74
30021;BME280;16861;52.294;7.760;2023-01-16T09:21:15;96876.22;;;6.85;76.73
30021;BME280;16861;52.294;7.760;2023-01-16T09:23:45;96863.81;;;6.87;76.87
30021;BME280;16861;52.294;7.760;2023-01-16T09:26:12;96852.41;;;6.88;76.84
30021;BME280;16861;52.294;7.760;2023-01-16T09:28:38;96844.56;;;6.88;76.62
30021;BME280;16861;52.294;7.760;2023-01-16T09:31:05;96840.16;;;6.89;76.63
30021;BME280;16861;52.294;7.760;2023-01-16T09:33:32;96843.59;;;6.89;76.65
30021;BME280;16861;52.294;7.760;2023-01-16T09:35:58;96829.56;;;6.90;76.70
30021;BME280;16861;52.294;7.760;2023-01-16T09:38:25;96816.50;;;6.90;76.80
30021;BME280;16861;52.294;7.760;2023-01-16T09:40:56;96810.44;;;6.90;75.95
30021;BME280;16861;52.294;7.760;2023-01-16T09:43:42;96811.41;;;6.89;75.04
30021;BME280;16861;52.294;7.760;2023-01-16T09:46:25;96808.78;;;6.89;75.18
30021;BME280;16861;52.294;7.760;2023-01-16T09:48:58;96803.28;;;6.92;76.68
30021;BME280;16861;52.294;7.760;2023-01-16T09:51:31;96793.63;;;6.93;76.59
30021;BME280;16861;52.294;7.760;2023-01-16T09:54:04;96791.16;;;6.91;75.58
30021;BME280;16861;52.294;7.760;2023-01-16T09:56:56;96791.16;;;6.91;75.56
30021;BME280;16861;52.294;7.760;2023-01-16T09:59:46;96785.13;;;6.90;75.69
30021;BME280;16861;52.294;7.760;2023-01-16T10:02:32;96781.81;;;6.88;75.03
30021;BME280;16861;52.294;7.760;2023-01-16T10:05:02;96770.38;;;6.89;76.00
30021;BME280;16861;52.294;7.760;2023-01-16T10:07:45;96776.72;;;6.87;75.11
30021;BME280;16861;52.294;7.760;2023-01-16T10:21:27;96726.34;;;6.85;76.68
30021;BME280;16861;52.294;7.760;2023-01-16T10:24:01;96709.84;;;6.84;76.87
30021;BME280;16861;52.294;7.760;2023-01-16T10:26:30;96707.34;;;6.83;76.88
30021;BME280;16861;52.294;7.760;2023-01-16T10:29:29;96700.47;;;6.82;75.48
30021;BME280;16861;52.294;7.760;2023-01-16T10:32:01;96694.16;;;6.84;76.96
30021;BME280;16861;52.294;7.760;2023-01-16T10:34:37;96685.63;;;6.82;75.82
30021;BME280;16861;52.294;7.760;2023-01-16T10:37:06;96687.13;;;6.85;77.02
30021;BME280;16861;52.294;7.760;2023-01-16T10:39:36;96668.00;;;6.84;76.47
30021;BME280;16861;52.294;7.760;2023-01-16T10:44:58;96658.25;;;6.86;77.09
30021;BME280;16861;52.294;7.760;2023-01-16T10:47:46;96647.78;;;6.86;77.15
30021;BME280;16861;52.294;7.760;2023-01-16T10:50:31;96642.56;;;6.86;77.15
30021;BME280;16861;52.294;7.760;2023-01-16T10:53:08;96638.28;;;6.85;76.41
30021;BME280;16861;52.294;7.760;2023-01-16T10:55:39;96631.13;;;6.87;76.81
30021;BME280;16861;52.294;7.760;2023-01-16T10:58:43;96620.00;;;6.85;76.22
30021;BME280;16861;52.294;7.760;2023-01-16T11:01:16;96615.03;;;6.92;77.00
30021;BME280;16861;52.294;7.760;2023-01-16T11:03:46;96610.59;;;6.93;77.02
30021;BME280;16861;52.294;7.760;2023-01-16T11:06:19;96608.69;;;6.95;77.00
30021;BME280;16861;52.294;7.760;2023-01-16T11:08:53;96609.63;;;6.94;76.52
30021;BME280;16861;52.294;7.760;2023-01-16T11:11:20;96591.88;;;6.97;77.31
30021;BME280;16861;52.294;7.760;2023-01-16T11:14:21;96589.41;;;6.96;75.97
30021;BME280;16861;52.294;7.760;2023-01-16T11:17:30;96580.59;;;6.97;76.20
30021;BME280;16861;52.294;7.760;2023-01-16T11:20:19;96573.97;;;7.02;77.38
30021;BME280;16861;52.294;7.760;2023-01-16T11:22:55;96584.41;;;7.02;76.84
30021;BME280;16861;52.294;7.760;2023-01-16T11:25:26;96564.72;;;7.08;77.79
30021;BME280;16861;52.294;7.760;2023-01-16T11:27:56;96554.78;;;7.12;78.19
30021;BME280;16861;52.294;7.760;2023-01-16T11:30:37;96553.00;;;7.12;77.01
30021;BME280;16861;52.294;7.760;2023-01-16T11:33:05;96551.44;;;7.20;78.12
30021;BME280;16861;52.294;7.760;2023-01-16T11:35:37;96537.22;;;7.22;76.32
30021;BME280;16861;52.294;7.760;2023-01-16T11:38:05;96543.66;;;7.28;77.48
30021;BME280;16861;52.294;7.760;2023-01-16T11:40:37;96534.19;;;7.27;77.00
30021;BME280;16861;52.294;7.760;2023-01-16T11:43:15;96527.97;;;7.28;76.92
30021;BME280;16861;52.294;7.760;2023-01-16T11:46:06;96518.34;;;7.28;76.92
30021;BME280;16861;52.294;7.760;2023-01-16T11:48:43;96506.91;;;7.29;76.44
30021;BME280;16861;52.294;7.760;2023-01-16T11:51:19;96518.19;;;7.30;77.31
30021;BME280;16861;52.294;7.760;2023-01-16T11:53:49;96507.59;;;7.32;77.27
30021;BME280;16861;52.294;7.760;2023-01-16T12:04:37;96489.56;;;7.28;76.83
30021;BME280;16861;52.294;7.760;2023-01-16T12:07:31;96479.53;;;7.24;75.23
30021;BME280;16861;52.294;7.760;2023-01-16T12:10:15;96471.69;;;7.24;75.46
30021;BME280;16861;52.294;7.760;2023-01-16T12:13:06;96478.19;;;7.20;74.97
30021;BME280;16861;52.294;7.760;2023-01-16T12:16:04;96472.28;;;7.17;75.67
30021;BME280;16861;52.294;7.760;2023-01-16T12:24:16;96451.00;;;7.12;75.90
30021;BME280;16861;52.294;7.760;2023-01-16T12:27:11;96439.19;;;7.08;75.47
30021;BME280;16861;52.294;7.760;2023-01-16T12:29:54;96423.34;;;7.10;77.13
30021;BME280;16861;52.294;7.760;2023-01-16T12:38:10;96413.31;;;7.05;75.70
30021;BME280;16861;52.294;7.760;2023-01-16T12:43:57;96398.00;;;7.10;76.74
30021;BME280;16861;52.294;7.760;2023-01-16T12:46:52;96391.78;;;7.11;76.21
30021;BME280;16861;52.294;7.760;2023-01-16T12:49:35;96383.50;;;7.16;75.99
30021;BME280;16861;52.294;7.760;2023-01-16T12:52:39;96373.56;;;7.20;76.38
30021;BME280;16861;52.294;7.760;2023-01-16T12:55:20;96361.81;;;7.24;77.95
30021;BME280;16861;52.294;7.760;2023-01-16T12:58:08;96360.03;;;7.24;77.04
30021;BME280;16861;52.294;7.760;2023-01-16T13:00:43;96353.38;;;7.30;77.00
30021;BME280;16861;52.294;7.760;2023-01-16T13:03:20;96344.41;;;7.33;77.31
30021;BME280;16861;52.294;7.760;2023-01-16T13:05:53;96342.66;;;7.41;78.88
30021;BME280;16861;52.294;7.760;2023-01-16T13:08:33;96334.88;;;7.50;77.97
30021;BME280;16861;52.294;7.760;2023-01-16T13:11:10;96328.56;;;7.61;78.80
30021;BME280;16861;52.294;7.760;2023-01-16T13:14:00;96309.69;;;7.75;78.74
30021;BME280;16861;52.294;7.760;2023-01-16T13:19:21;96311.41;;;7.93;77.37
30021;BME280;16861;52.294;7.760;2023-01-16T13:22:04;96297.16;;;7.95;76.39
30021;BME280;16861;52.294;7.760;2023-01-16T13:24:39;96302.09;;;7.99;76.11
30021;BME280;16861;52.294;7.760;2023-01-16T13:27:13;96290.66;;;8.00;75.82
30021;BME280;16861;52.294;7.760;2023-01-16T13:29:45;96290.50;;;8.01;75.44
30021;BME280;16861;52.294;7.760;2023-01-16T13:32:27;96280.00;;;8.01;75.00
30021;BME280;16861;52.294;7.760;2023-01-16T13:35:07;96278.88;;;8.04;75.34
30021;BME280;16861;52.294;7.760;2023-01-16T13:37:57;96284.31;;;8.11;77.20
30021;BME280;16861;52.294;7.760;2023-01-16T13:43:24;96276.78;;;8.16;74.95
30021;BME280;16861;52.294;7.760;2023-01-16T13:46:12;96269.56;;;8.18;76.19
30021;BME280;16861;52.294;7.760;2023-01-16T13:48:39;96267.78;;;8.18;76.38
30021;BME280;16861;52.294;7.760;2023-01-16T13:51:14;96263.84;;;8.14;74.81
30021;BME280;16861;52.294;7.760;2023-01-16T13:53:44;96263.53;;;8.17;75.96
30021;BME280;16861;52.294;7.760;2023-01-16T13:56:19;96256.97;;;8.13;74.37
30021;BME280;16861;52.294;7.760;2023-01-16T13:58:53;96262.22;;;8.13;74.79
30021;BME280;16861;52.294;7.760;2023-01-16T14:06:44;96254.78;;;8.00;74.18
30021;BME280;16861;52.294;7.760;2023-01-16T14:15:46;96231.97;;;7.84;73.28
30021;BME280;16861;52.294;7.760;2023-01-16T14:21:04;96226.25;;;7.80;75.63
30021;BME280;16861;52.294;7.760;2023-01-16T14:23:36;96224.75;;;7.78;75.63
30021;BME280;16861;52.294;7.760;2023-01-16T14:29:27;96212.28;;;7.72;74.37
30021;BME280;16861;52.294;7.760;2023-01-16T14:35:04;96199.19;;;7.72;74.71
30021;BME280;16861;52.294;7.760;2023-01-16T14:37:40;96198.41;;;7.71;75.92
30021;BME280;16861;52.294;7.760;2023-01-16T14:42:38;96189.06;;;7.68;75.61
30021;BME280;16861;52.294;7.760;2023-01-16T14:46:12;96184.94;;;7.66;74.07
30021;BME280;16861;52.294;7.760;2023-01-16T14:48:59;96178.41;;;7.70;76.15
30021;BME280;16861;52.294;7.760;2023-01-16T14:52:10;96185.47;;;7.69;74.91
30021;BME280;16861;52.294;7.760;2023-01-16T14:54:55;96174.69;;;7.73;76.43
30021;BME280;16861;52.294;7.760;2023-01-16T14:57:41;96169.25;;;7.74;76.35
30021;BME280;16861;52.294;7.760;2023-01-16T15:00:13;96175.34;;;7.75;76.21
30021;BME280;16861;52.294;7.760;2023-01-16T15:03:20;96171.06;;;7.74;74.79
30021;BME280;16861;52.294;7.760;2023-01-16T15:05:56;96170.25;;;7.73;74.05
30021;BME280;16861;52.294;7.760;2023-01-16T15:08:36;96169.44;;;7.73;73.83
30021;BME280;16861;52.294;7.760;2023-01-16T15:11:10;96167.47;;;7.75;74.72
30021;BME280;16861;52.294;7.760;2023-01-16T15:14:09;96172.06;;;7.73;73.99
30021;BME280;16861;52.294;7.760;2023-01-16T15:17:25;96155.03;;;7.68;74.15
30021;BME280;16861;52.294;7.760;2023-01-16T15:22:58;96147.66;;;7.64;75.51
30021;BME280;16861;52.294;7.760;2023-01-16T15:28:23;96141.41;;;7.56;75.15
30021;BME280;16861;52.294;7.760;2023-01-16T15:30:52;96138.13;;;7.54;75.77
30021;BME280;16861;52.294;7.760;2023-01-16T15:33:22;96139.28;;;7.52;75.59
30021;BME280;16861;52.294;7.760;2023-01-16T15:36:16;96135.31;;;7.48;74.88
30021;BME280;16861;52.294;7.760;2023-01-16T15:38:47;96131.09;;;7.47;75.13